| Date | Time | Temp. (oF) | Dew Point (oF) | Rel. Hum. (%) | Press. (in.) | Wind Dir. | Wind Speed (mph) | Hourly Rainfall (in.) |
|
|---|---|---|---|---|---|---|---|---|---|
| 1 | 02/07 | 00:00 | 25 | 24 | 100 | 30.21 | E | 3 | 0.00 |
| 2 | 02/06 | 23:00 | 25 | 24 | 99 | 30.24 | SSE | 2 | 0.02 |
| 3 | 02/06 | 22:00 | 25 | 24 | 97 | 30.27 | SSE | 3 | 0.02 |
| 4 | 02/06 | 21:00 | 25 | 23 | 93 | 30.29 | SSE | 2 | 0.00 |
| 5 | 02/06 | 20:00 | 28 | 19 | 69 | 30.30 | SSE | 4 | 0.00 |
| 6 | 02/06 | 19:00 | 28 | 17 | 64 | 30.31 | SSE | 0 | 0.00 |
| 7 | 02/06 | 18:00 | 29 | 17 | 61 | 30.33 | S | 7 | 0.00 |
| 8 | 02/06 | 17:00 | 29 | 18 | 64 | 30.32 | SSE | 4 | 0.00 |
| 9 | 02/06 | 16:00 | 30 | 17 | 59 | 30.33 | S | 4 | 0.00 |
| 10 | 02/06 | 15:00 | 30 | 16 | 58 | 30.33 | E | 1 | 0.00 |
| 11 | 02/06 | 14:00 | 30 | 16 | 58 | 30.36 | SSW | 5 | 0.00 |
| 12 | 02/06 | 13:00 | 28 | 15 | 60 | 30.38 | SE | 4 | 0.00 |
| 13 | 02/06 | 12:00 | 27 | 15 | 62 | 30.42 | S | 5 | 0.00 |
| 14 | 02/06 | 11:00 | 25 | 15 | 66 | 30.45 | SSW | 5 | 0.00 |
| 15 | 02/06 | 10:00 | 25 | 16 | 71 | 30.44 | S | 5 | 0.00 |
| 16 | 02/06 | 09:00 | 21 | 19 | 93 | 30.45 | SSW | 3 | 0.00 |
| 17 | 02/06 | 08:00 | 15 | 13 | 94 | 30.43 | SSW | 0 | 0.00 |
| 18 | 02/06 | 07:00 | 14 | 11 | 91 | 30.42 | SSW | 2 | 0.00 |
| 19 | 02/06 | 06:00 | 15 | 12 | 89 | 30.40 | NW | 0 | 0.00 |
| 20 | 02/06 | 05:00 | 15 | 12 | 91 | 30.39 | SSW | 1 | 0.00 |
| 21 | 02/06 | 04:00 | 15 | 11 | 87 | 30.37 | SSW | 3 | 0.00 |
| 22 | 02/06 | 03:00 | 16 | 11 | 82 | 30.35 | SSW | 1 | 0.00 |
| 23 | 02/06 | 02:00 | 17 | 10 | 76 | 30.33 | N | 0 | 0.00 |
| 24 | 02/06 | 01:00 | 18 | 11 | 74 | 30.32 | WNW | 1 | 0.00 |